sensor_id;sensor_type;location;lat;lon;timestamp;temperature;humidity
3784;DHT22;1907;49.238;9.262;2022-09-09T00:00:15;14.60;99.90
3784;DHT22;1907;49.238;9.262;2022-09-09T00:02:49;14.60;99.90
3784;DHT22;1907;49.238;9.262;2022-09-09T00:07:55;14.60;99.90
3784;DHT22;1907;49.238;9.262;2022-09-09T00:10:37;14.60;99.90
3784;DHT22;1907;49.238;9.262;2022-09-09T00:18:58;14.50;99.90
3784;DHT22;1907;49.238;9.262;2022-09-09T00:21:33;14.50;99.90
3784;DHT22;1907;49.238;9.262;2022-09-09T00:24:04;14.50;99.90
3784;DHT22;1907;49.238;9.262;2022-09-09T00:26:45;14.50;99.90
3784;DHT22;1907;49.238;9.262;2022-09-09T00:29:23;14.50;99.90
3784;DHT22;1907;49.238;9.262;2022-09-09T00:31:57;14.40;99.90
3784;DHT22;1907;49.238;9.262;2022-09-09T00:34:25;14.40;99.90
3784;DHT22;1907;49.238;9.262;2022-09-09T00:36:53;14.50;99.90
3784;DHT22;1907;49.238;9.262;2022-09-09T00:39:39;14.50;99.90
3784;DHT22;1907;49.238;9.262;2022-09-09T00:50:47;14.60;99.90
3784;DHT22;1907;49.238;9.262;2022-09-09T00:58:32;14.60;99.90
3784;DHT22;1907;49.238;9.262;2022-09-09T01:01:12;14.60;99.90
3784;DHT22;1907;49.238;9.262;2022-09-09T01:03:54;14.60;99.90
3784;DHT22;1907;49.238;9.262;2022-09-09T01:06:22;14.60;99.90
3784;DHT22;1907;49.238;9.262;2022-09-09T01:11:50;14.60;99.90
3784;DHT22;1907;49.238;9.262;2022-09-09T01:17:00;14.70;99.90
3784;DHT22;1907;49.238;9.262;2022-09-09T01:19:50;14.70;99.90
3784;DHT22;1907;49.238;9.262;2022-09-09T01:25:11;14.70;99.90
3784;DHT22;1907;49.238;9.262;2022-09-09T01:27:42;14.70;99.90
3784;DHT22;1907;49.238;9.262;2022-09-09T01:30:13;14.80;99.90
3784;DHT22;1907;49.238;9.262;2022-09-09T01:32:47;14.80;99.90
3784;DHT22;1907;49.238;9.262;2022-09-09T01:38:24;14.80;99.90
3784;DHT22;1907;49.238;9.262;2022-09-09T01:40:51;14.80;99.90
3784;DHT22;1907;49.238;9.262;2022-09-09T01:43:21;14.80;99.90
3784;DHT22;1907;49.238;9.262;2022-09-09T01:45:49;14.80;99.90
3784;DHT22;1907;49.238;9.262;2022-09-09T01:48:16;14.80;99.90
3784;DHT22;1907;49.238;9.262;2022-09-09T01:50:43;14.80;99.90
3784;DHT22;1907;49.238;9.262;2022-09-09T01:53:09;14.80;99.90
3784;DHT22;1907;49.238;9.262;2022-09-09T01:55:40;14.80;99.90
3784;DHT22;1907;49.238;9.262;2022-09-09T01:59:07;14.80;99.90
3784;DHT22;1907;49.238;9.262;2022-09-09T02:03:51;14.80;99.90
3784;DHT22;1907;49.238;9.262;2022-09-09T02:06:22;14.80;99.90
3784;DHT22;1907;49.238;9.262;2022-09-09T02:08:55;14.80;99.90
3784;DHT22;1907;49.238;9.262;2022-09-09T02:11:26;14.80;99.90
3784;DHT22;1907;49.238;9.262;2022-09-09T02:14:06;14.80;99.90
3784;DHT22;1907;49.238;9.262;2022-09-09T02:16:49;14.80;99.90
3784;DHT22;1907;49.238;9.262;2022-09-09T02:19:17;14.70;99.90
3784;DHT22;1907;49.238;9.262;2022-09-09T02:21:49;14.70;99.90
3784;DHT22;1907;49.238;9.262;2022-09-09T02:24:15;14.60;99.90
3784;DHT22;1907;49.238;9.262;2022-09-09T02:26:42;14.60;99.90
3784;DHT22;1907;49.238;9.262;2022-09-09T02:29:21;14.60;99.90
3784;DHT22;1907;49.238;9.262;2022-09-09T02:31:49;14.60;99.90
3784;DHT22;1907;49.238;9.262;2022-09-09T02:34:17;14.60;99.90
3784;DHT22;1907;49.238;9.262;2022-09-09T02:36:45;14.70;99.90
3784;DHT22;1907;49.238;9.262;2022-09-09T02:39:11;14.70;99.90
3784;DHT22;1907;49.238;9.262;2022-09-09T02:41:40;14.80;99.90
3784;DHT22;1907;49.238;9.262;2022-09-09T02:44:14;14.80;99.90
3784;DHT22;1907;49.238;9.262;2022-09-09T02:49:43;14.90;99.90
3784;DHT22;1907;49.238;9.262;2022-09-09T02:52:14;14.90;99.90
3784;DHT22;1907;49.238;9.262;2022-09-09T02:54:44;14.90;99.90
3784;DHT22;1907;49.238;9.262;2022-09-09T02:59:36;14.80;99.90
3784;DHT22;1907;49.238;9.262;2022-09-09T03:02:03;14.80;99.90
3784;DHT22;1907;49.238;9.262;2022-09-09T03:04:29;14.80;99.90
3784;DHT22;1907;49.238;9.262;2022-09-09T03:06:57;14.80;99.90
3784;DHT22;1907;49.238;9.262;2022-09-09T03:09:22;14.80;99.90
3784;DHT22;1907;49.238;9.262;2022-09-09T03:11:48;14.70;99.90
3784;DHT22;1907;49.238;9.262;2022-09-09T03:14:15;14.70;99.90
3784;DHT22;1907;49.238;9.262;2022-09-09T03:16:40;14.70;99.90
3784;DHT22;1907;49.238;9.262;2022-09-09T03:19:08;14.70;99.90
3784;DHT22;1907;49.238;9.262;2022-09-09T03:21:34;14.60;99.90
3784;DHT22;1907;49.238;9.262;2022-09-09T03:23:59;14.60;99.90
3784;DHT22;1907;49.238;9.262;2022-09-09T03:26:25;14.50;99.90
3784;DHT22;1907;49.238;9.262;2022-09-09T03:28:51;14.50;99.90
3784;DHT22;1907;49.238;9.262;2022-09-09T03:31:17;14.40;99.90
3784;DHT22;1907;49.238;9.262;2022-09-09T03:33:44;14.40;99.90
3784;DHT22;1907;49.238;9.262;2022-09-09T03:36:10;14.30;99.90
3784;DHT22;1907;49.238;9.262;2022-09-09T03:38:35;14.30;99.90
3784;DHT22;1907;49.238;9.262;2022-09-09T03:41:01;14.20;99.90
3784;DHT22;1907;49.238;9.262;2022-09-09T03:43:28;14.20;99.90
3784;DHT22;1907;49.238;9.262;2022-09-09T03:45:55;14.20;99.90
3784;DHT22;1907;49.238;9.262;2022-09-09T03:48:22;14.10;99.90
3784;DHT22;1907;49.238;9.262;2022-09-09T03:50:50;14.10;99.90
3784;DHT22;1907;49.238;9.262;2022-09-09T03:53:18;14.00;99.90
3784;DHT22;1907;49.238;9.262;2022-09-09T03:55:49;14.00;99.90
3784;DHT22;1907;49.238;9.262;2022-09-09T03:58:16;14.00;99.90
3784;DHT22;1907;49.238;9.262;2022-09-09T04:01:02;14.00;99.90
3784;DHT22;1907;49.238;9.262;2022-09-09T04:03:28;14.00;99.90
3784;DHT22;1907;49.238;9.262;2022-09-09T04:05:56;14.00;99.90
3784;DHT22;1907;49.238;9.262;2022-09-09T04:08:23;14.10;99.90
3784;DHT22;1907;49.238;9.262;2022-09-09T04:10:52;14.10;99.90
3784;DHT22;1907;49.238;9.262;2022-09-09T04:13:19;14.20;99.90
3784;DHT22;1907;49.238;9.262;2022-09-09T04:15:54;14.20;99.90
3784;DHT22;1907;49.238;9.262;2022-09-09T04:18:20;14.20;99.90
3784;DHT22;1907;49.238;9.262;2022-09-09T04:20:47;14.30;99.90
3784;DHT22;1907;49.238;9.262;2022-09-09T04:23:14;14.40;99.90
3784;DHT22;1907;49.238;9.262;2022-09-09T04:25:53;14.40;99.90
3784;DHT22;1907;49.238;9.262;2022-09-09T04:28:21;14.40;99.90
3784;DHT22;1907;49.238;9.262;2022-09-09T04:30:46;14.40;99.90
3784;DHT22;1907;49.238;9.262;2022-09-09T04:33:13;14.40;99.90
3784;DHT22;1907;49.238;9.262;2022-09-09T04:35:39;14.40;99.90
3784;DHT22;1907;49.238;9.262;2022-09-09T04:38:08;14.40;99.90
3784;DHT22;1907;49.238;9.262;2022-09-09T04:40:34;14.50;99.90
3784;DHT22;1907;49.238;9.262;2022-09-09T04:43:01;14.50;99.90
3784;DHT22;1907;49.238;9.262;2022-09-09T04:45:29;14.50;99.90
3784;DHT22;1907;49.238;9.262;2022-09-09T04:47:54;14.60;99.90
3784;DHT22;1907;49.238;9.262;2022-09-09T04:50:20;14.60;99.90
3784;DHT22;1907;49.238;9.262;2022-09-09T04:52:46;14.60;99.90
3784;DHT22;1907;49.238;9.262;2022-09-09T04:55:12;14.60;99.90
3784;DHT22;1907;49.238;9.262;2022-09-09T04:57:39;14.60;99.90
3784;DHT22;1907;49.238;9.262;2022-09-09T05:00:05;14.60;99.90
3784;DHT22;1907;49.238;9.262;2022-09-09T05:02:30;14.60;99.90
3784;DHT22;1907;49.238;9.262;2022-09-09T05:04:57;14.70;99.90
3784;DHT22;1907;49.238;9.262;2022-09-09T05:07:23;14.70;99.90
3784;DHT22;1907;49.238;9.262;2022-09-09T05:09:49;14.70;99.90
3784;DHT22;1907;49.238;9.262;2022-09-09T05:12:15;14.60;99.90
3784;DHT22;1907;49.238;9.262;2022-09-09T05:14:44;14.60;99.90
3784;DHT22;1907;49.238;9.262;2022-09-09T05:17:10;14.60;99.90
3784;DHT22;1907;49.238;9.262;2022-09-09T05:19:36;14.60;99.90
3784;DHT22;1907;49.238;9.262;2022-09-09T05:22:02;14.60;99.90
3784;DHT22;1907;49.238;9.262;2022-09-09T05:24:29;14.60;99.90
3784;DHT22;1907;49.238;9.262;2022-09-09T05:26:58;14.60;99.90
3784;DHT22;1907;49.238;9.262;2022-09-09T05:29:25;14.60;99.90
3784;DHT22;1907;49.238;9.262;2022-09-09T05:31:51;14.60;99.90
3784;DHT22;1907;49.238;9.262;2022-09-09T05:34:17;14.70;99.90
3784;DHT22;1907;49.238;9.262;2022-09-09T05:36:43;14.70;99.90
3784;DHT22;1907;49.238;9.262;2022-09-09T05:39:08;14.70;99.90
3784;DHT22;1907;49.238;9.262;2022-09-09T05:41:34;14.80;99.90
3784;DHT22;1907;49.238;9.262;2022-09-09T05:44:01;14.70;99.90
3784;DHT22;1907;49.238;9.262;2022-09-09T05:46:27;14.80;99.90
3784;DHT22;1907;49.238;9.262;2022-09-09T05:48:53;14.80;99.90
3784;DHT22;1907;49.238;9.262;2022-09-09T05:51:21;14.90;99.90
3784;DHT22;1907;49.238;9.262;2022-09-09T05:53:48;15.00;99.90
3784;DHT22;1907;49.238;9.262;2022-09-09T05:58:44;15.20;99.90
3784;DHT22;1907;49.238;9.262;2022-09-09T06:01:11;15.20;99.90
3784;DHT22;1907;49.238;9.262;2022-09-09T06:03:38;15.30;99.90
3784;DHT22;1907;49.238;9.262;2022-09-09T06:06:06;15.50;99.90
3784;DHT22;1907;49.238;9.262;2022-09-09T06:08:37;15.60;99.90
3784;DHT22;1907;49.238;9.262;2022-09-09T06:11:14;15.90;99.90
3784;DHT22;1907;49.238;9.262;2022-09-09T06:13:41;16.30;99.90
3784;DHT22;1907;49.238;9.262;2022-09-09T06:16:26;16.70;99.90
3784;DHT22;1907;49.238;9.262;2022-09-09T06:18:53;17.00;99.90
3784;DHT22;1907;49.238;9.262;2022-09-09T06:21:30;17.10;99.90
3784;DHT22;1907;49.238;9.262;2022-09-09T06:23:58;17.10;99.90
3784;DHT22;1907;49.238;9.262;2022-09-09T06:26:26;17.20;99.90
3784;DHT22;1907;49.238;9.262;2022-09-09T06:28:54;17.20;99.90
3784;DHT22;1907;49.238;9.262;2022-09-09T06:31:21;17.20;99.90
3784;DHT22;1907;49.238;9.262;2022-09-09T06:33:52;17.20;99.90
3784;DHT22;1907;49.238;9.262;2022-09-09T06:38:48;17.40;99.90
3784;DHT22;1907;49.238;9.262;2022-09-09T06:41:16;17.40;99.90
3784;DHT22;1907;49.238;9.262;2022-09-09T06:43:42;17.50;99.90
3784;DHT22;1907;49.238;9.262;2022-09-09T06:46:21;17.70;99.90
3784;DHT22;1907;49.238;9.262;2022-09-09T06:48:48;17.80;99.90
3784;DHT22;1907;49.238;9.262;2022-09-09T06:51:19;18.00;99.90
3784;DHT22;1907;49.238;9.262;2022-09-09T06:53:47;18.10;99.90
3784;DHT22;1907;49.238;9.262;2022-09-09T06:58:49;18.20;99.90
3784;DHT22;1907;49.238;9.262;2022-09-09T07:01:26;18.30;99.90
3784;DHT22;1907;49.238;9.262;2022-09-09T07:03:54;18.60;99.90
3784;DHT22;1907;49.238;9.262;2022-09-09T07:06:23;18.80;99.90
3784;DHT22;1907;49.238;9.262;2022-09-09T07:08:52;19.00;99.90
3784;DHT22;1907;49.238;9.262;2022-09-09T07:11:19;19.30;99.90
3784;DHT22;1907;49.238;9.262;2022-09-09T07:13:45;19.70;99.90
3784;DHT22;1907;49.238;9.262;2022-09-09T07:16:14;20.00;99.90
3784;DHT22;1907;49.238;9.262;2022-09-09T07:18:40;20.30;99.90
3784;DHT22;1907;49.238;9.262;2022-09-09T07:21:08;20.40;99.90
3784;DHT22;1907;49.238;9.262;2022-09-09T07:23:34;20.90;99.90
3784;DHT22;1907;49.238;9.262;2022-09-09T07:26:01;21.20;99.90
3784;DHT22;1907;49.238;9.262;2022-09-09T07:28:27;20.90;99.90
3784;DHT22;1907;49.238;9.262;2022-09-09T07:30:58;20.70;99.90
3784;DHT22;1907;49.238;9.262;2022-09-09T07:33:25;20.60;99.90
3784;DHT22;1907;49.238;9.262;2022-09-09T07:35:52;20.50;99.90
3784;DHT22;1907;49.238;9.262;2022-09-09T07:38:19;20.50;99.90
3784;DHT22;1907;49.238;9.262;2022-09-09T07:40:46;20.50;99.90
3784;DHT22;1907;49.238;9.262;2022-09-09T07:43:11;20.50;99.90
3784;DHT22;1907;49.238;9.262;2022-09-09T07:45:37;20.60;99.90
3784;DHT22;1907;49.238;9.262;2022-09-09T07:48:03;20.60;99.90
3784;DHT22;1907;49.238;9.262;2022-09-09T07:50:29;20.60;99.90
3784;DHT22;1907;49.238;9.262;2022-09-09T07:52:55;20.90;99.90
3784;DHT22;1907;49.238;9.262;2022-09-09T07:55:21;21.00;99.90
3784;DHT22;1907;49.238;9.262;2022-09-09T08:00:26;21.30;99.90
3784;DHT22;1907;49.238;9.262;2022-09-09T08:02:53;21.30;99.90
3784;DHT22;1907;49.238;9.262;2022-09-09T08:05:19;21.30;99.90
3784;DHT22;1907;49.238;9.262;2022-09-09T08:07:45;21.30;99.90
3784;DHT22;1907;49.238;9.262;2022-09-09T08:10:11;21.30;99.90
3784;DHT22;1907;49.238;9.262;2022-09-09T08:12:37;21.60;99.90
3784;DHT22;1907;49.238;9.262;2022-09-09T08:15:02;22.00;99.90
3784;DHT22;1907;49.238;9.262;2022-09-09T08:17:28;22.60;99.90
3784;DHT22;1907;49.238;9.262;2022-09-09T08:19:54;22.70;99.90
3784;DHT22;1907;49.238;9.262;2022-09-09T08:22:19;22.70;99.90
3784;DHT22;1907;49.238;9.262;2022-09-09T08:24:45;22.70;99.90
3784;DHT22;1907;49.238;9.262;2022-09-09T08:27:12;23.10;99.90
3784;DHT22;1907;49.238;9.262;2022-09-09T08:29:38;23.40;99.90
3784;DHT22;1907;49.238;9.262;2022-09-09T08:32:03;23.40;99.90
3784;DHT22;1907;49.238;9.262;2022-09-09T08:34:29;23.50;99.90
3784;DHT22;1907;49.238;9.262;2022-09-09T08:36:56;23.60;99.90
3784;DHT22;1907;49.238;9.262;2022-09-09T08:39:22;23.40;99.90
3784;DHT22;1907;49.238;9.262;2022-09-09T08:52:30;23.20;99.90
3784;DHT22;1907;49.238;9.262;2022-09-09T08:57:42;23.40;99.90
3784;DHT22;1907;49.238;9.262;2022-09-09T09:00:10;23.60;99.90
3784;DHT22;1907;49.238;9.262;2022-09-09T09:02:58;23.50;99.90
3784;DHT22;1907;49.238;9.262;2022-09-09T09:05:41;23.60;99.90
3784;DHT22;1907;49.238;9.262;2022-09-09T09:10:56;23.70;99.90
3784;DHT22;1907;49.238;9.262;2022-09-09T09:16:19;23.50;99.90
3784;DHT22;1907;49.238;9.262;2022-09-09T09:18:47;23.60;99.90
3784;DHT22;1907;49.238;9.262;2022-09-09T09:21:44;24.10;99.90
3784;DHT22;1907;49.238;9.262;2022-09-09T09:24:22;24.10;99.90
3784;DHT22;1907;49.238;9.262;2022-09-09T09:26:50;24.10;99.90
3784;DHT22;1907;49.238;9.262;2022-09-09T09:29:18;24.20;99.90
3784;DHT22;1907;49.238;9.262;2022-09-09T09:31:52;24.20;99.90
3784;DHT22;1907;49.238;9.262;2022-09-09T09:34:22;24.00;99.90
3784;DHT22;1907;49.238;9.262;2022-09-09T09:36:56;23.80;99.90
3784;DHT22;1907;49.238;9.262;2022-09-09T09:39:33;23.70;99.90
3784;DHT22;1907;49.238;9.262;2022-09-09T09:42:11;24.00;99.90
3784;DHT22;1907;49.238;9.262;2022-09-09T09:44:39;24.50;99.90
3784;DHT22;1907;49.238;9.262;2022-09-09T09:47:23;24.60;99.90
3784;DHT22;1907;49.238;9.262;2022-09-09T09:49:57;24.60;99.90
3784;DHT22;1907;49.238;9.262;2022-09-09T09:52:26;24.30;99.90
3784;DHT22;1907;49.238;9.262;2022-09-09T09:54:54;23.60;99.90
3784;DHT22;1907;49.238;9.262;2022-09-09T09:57:26;23.00;98.90
3784;DHT22;1907;49.238;9.262;2022-09-09T10:00:16;22.30;99.80
3784;DHT22;1907;49.238;9.262;2022-09-09T10:02:46;21.80;99.90
3784;DHT22;1907;49.238;9.262;2022-09-09T10:05:21;21.50;99.90
3784;DHT22;1907;49.238;9.262;2022-09-09T10:07:57;21.20;99.90
3784;DHT22;1907;49.238;9.262;2022-09-09T10:10:35;21.30;99.90
3784;DHT22;1907;49.238;9.262;2022-09-09T10:15:52;21.80;99.90
3784;DHT22;1907;49.238;9.262;2022-09-09T10:18:45;22.20;99.90
3784;DHT22;1907;49.238;9.262;2022-09-09T10:21:40;22.60;99.90
3784;DHT22;1907;49.238;9.262;2022-09-09T10:57:20;23.60;99.90
3784;DHT22;1907;49.238;9.262;2022-09-09T10:59:51;23.70;99.40
3784;DHT22;1907;49.238;9.262;2022-09-09T11:02:29;23.80;98.10
3784;DHT22;1907;49.238;9.262;2022-09-09T11:05:14;24.20;98.60
3784;DHT22;1907;49.238;9.262;2022-09-09T11:10:45;25.00;95.30
3784;DHT22;1907;49.238;9.262;2022-09-09T11:22:03;26.40;92.70
3784;DHT22;1907;49.238;9.262;2022-09-09T11:24:40;26.80;92.50
3784;DHT22;1907;49.238;9.262;2022-09-09T11:27:20;26.50;92.10
3784;DHT22;1907;49.238;9.262;2022-09-09T11:30:05;26.50;92.40
3784;DHT22;1907;49.238;9.262;2022-09-09T11:35:34;25.20;93.10
3784;DHT22;1907;49.238;9.262;2022-09-09T11:40:41;24.00;94.60
3784;DHT22;1907;49.238;9.262;2022-09-09T11:45:43;23.70;95.10
3784;DHT22;1907;49.238;9.262;2022-09-09T11:48:37;23.60;95.30
3784;DHT22;1907;49.238;9.262;2022-09-09T11:51:09;23.80;96.10
3784;DHT22;1907;49.238;9.262;2022-09-09T11:53:57;23.90;95.90
3784;DHT22;1907;49.238;9.262;2022-09-09T11:56:41;24.10;96.40
3784;DHT22;1907;49.238;9.262;2022-09-09T11:59:21;24.40;96.10
3784;DHT22;1907;49.238;9.262;2022-09-09T12:02:13;24.80;95.70
3784;DHT22;1907;49.238;9.262;2022-09-09T12:05:07;25.20;95.30
3784;DHT22;1907;49.238;9.262;2022-09-09T12:12:46;25.10;94.60
3784;DHT22;1907;49.238;9.262;2022-09-09T12:17:42;24.80;95.70
3784;DHT22;1907;49.238;9.262;2022-09-09T12:20:26;24.80;95.50
3784;DHT22;1907;49.238;9.262;2022-09-09T12:28:52;24.90;91.60
3784;DHT22;1907;49.238;9.262;2022-09-09T12:36:44;24.60;91.80
3784;DHT22;1907;49.238;9.262;2022-09-09T12:39:28;24.90;91.40
3784;DHT22;1907;49.238;9.262;2022-09-09T12:41:55;25.10;91.10
3784;DHT22;1907;49.238;9.262;2022-09-09T12:44:24;25.10;91.10
3784;DHT22;1907;49.238;9.262;2022-09-09T12:46:51;24.70;90.90
3784;DHT22;1907;49.238;9.262;2022-09-09T12:49:34;24.20;91.50
3784;DHT22;1907;49.238;9.262;2022-09-09T12:52:04;23.90;92.70
3784;DHT22;1907;49.238;9.262;2022-09-09T12:54:32;23.80;93.60
3784;DHT22;1907;49.238;9.262;2022-09-09T12:56:58;23.70;94.50
3784;DHT22;1907;49.238;9.262;2022-09-09T12:59:36;23.80;94.80
3784;DHT22;1907;49.238;9.262;2022-09-09T13:02:02;23.70;93.50
3784;DHT22;1907;49.238;9.262;2022-09-09T13:04:28;23.90;93.50
3784;DHT22;1907;49.238;9.262;2022-09-09T13:06:53;24.00;93.60
3784;DHT22;1907;49.238;9.262;2022-09-09T13:09:20;24.40;93.60
3784;DHT22;1907;49.238;9.262;2022-09-09T13:11:52;24.60;93.40
3784;DHT22;1907;49.238;9.262;2022-09-09T13:14:43;24.90;92.50
3784;DHT22;1907;49.238;9.262;2022-09-09T13:17:19;25.20;91.60
3784;DHT22;1907;49.238;9.262;2022-09-09T13:19:46;25.30;90.50
3784;DHT22;1907;49.238;9.262;2022-09-09T13:30:39;25.50;91.10
3784;DHT22;1907;49.238;9.262;2022-09-09T13:35:35;25.20;91.70
3784;DHT22;1907;49.238;9.262;2022-09-09T13:38:08;24.90;91.20
3784;DHT22;1907;49.238;9.262;2022-09-09T13:40:35;24.90;91.20
3784;DHT22;1907;49.238;9.262;2022-09-09T13:43:02;24.90;92.00
3784;DHT22;1907;49.238;9.262;2022-09-09T13:45:28;25.10;91.60
3784;DHT22;1907;49.238;9.262;2022-09-09T13:47:55;25.20;91.50
3784;DHT22;1907;49.238;9.262;2022-09-09T13:50:26;25.00;91.00
3784;DHT22;1907;49.238;9.262;2022-09-09T13:52:57;24.90;91.50
3784;DHT22;1907;49.238;9.262;2022-09-09T13:55:27;24.90;91.90
3784;DHT22;1907;49.238;9.262;2022-09-09T13:57:57;24.90;91.60
3784;DHT22;1907;49.238;9.262;2022-09-09T14:00:23;24.90;91.70
3784;DHT22;1907;49.238;9.262;2022-09-09T14:02:52;24.50;92.10
3784;DHT22;1907;49.238;9.262;2022-09-09T14:05:20;24.20;92.40
3784;DHT22;1907;49.238;9.262;2022-09-09T14:07:47;23.90;93.60
3784;DHT22;1907;49.238;9.262;2022-09-09T14:10:13;23.80;94.00
3784;DHT22;1907;49.238;9.262;2022-09-09T14:12:39;23.70;94.00
3784;DHT22;1907;49.238;9.262;2022-09-09T14:15:06;23.40;94.00
3784;DHT22;1907;49.238;9.262;2022-09-09T14:17:32;23.00;94.50
3784;DHT22;1907;49.238;9.262;2022-09-09T14:19:58;22.70;95.50
3784;DHT22;1907;49.238;9.262;2022-09-09T14:22:24;22.40;97.10
3784;DHT22;1907;49.238;9.262;2022-09-09T14:24:51;22.10;99.90
3784;DHT22;1907;49.238;9.262;2022-09-09T14:27:17;21.80;99.90
3784;DHT22;1907;49.238;9.262;2022-09-09T14:29:44;21.60;99.90
3784;DHT22;1907;49.238;9.262;2022-09-09T14:32:10;21.60;99.90
3784;DHT22;1907;49.238;9.262;2022-09-09T14:34:36;21.80;99.90
3784;DHT22;1907;49.238;9.262;2022-09-09T14:37:02;22.00;99.90
3784;DHT22;1907;49.238;9.262;2022-09-09T14:39:28;22.50;99.90
3784;DHT22;1907;49.238;9.262;2022-09-09T14:41:54;22.90;99.90
3784;DHT22;1907;49.238;9.262;2022-09-09T14:44:20;23.20;99.90
3784;DHT22;1907;49.238;9.262;2022-09-09T14:46:45;23.30;99.90
3784;DHT22;1907;49.238;9.262;2022-09-09T14:49:11;23.10;99.90
3784;DHT22;1907;49.238;9.262;2022-09-09T14:51:37;22.70;99.90
3784;DHT22;1907;49.238;9.262;2022-09-09T14:54:03;22.20;99.90
3784;DHT22;1907;49.238;9.262;2022-09-09T14:56:31;21.80;99.90
3784;DHT22;1907;49.238;9.262;2022-09-09T14:58:58;21.40;99.90
3784;DHT22;1907;49.238;9.262;2022-09-09T15:01:27;21.10;99.90
3784;DHT22;1907;49.238;9.262;2022-09-09T15:03:55;20.90;99.90
3784;DHT22;1907;49.238;9.262;2022-09-09T15:06:22;20.70;99.90
3784;DHT22;1907;49.238;9.262;2022-09-09T15:08:50;20.50;99.90
3784;DHT22;1907;49.238;9.262;2022-09-09T15:11:16;20.30;99.90
3784;DHT22;1907;49.238;9.262;2022-09-09T15:13:43;20.10;99.90
3784;DHT22;1907;49.238;9.262;2022-09-09T15:16:10;20.00;99.90
3784;DHT22;1907;49.238;9.262;2022-09-09T15:18:36;19.90;99.90
3784;DHT22;1907;49.238;9.262;2022-09-09T15:21:04;19.80;99.90
3784;DHT22;1907;49.238;9.262;2022-09-09T15:23:34;19.70;99.90
3784;DHT22;1907;49.238;9.262;2022-09-09T15:26:00;19.70;99.90
3784;DHT22;1907;49.238;9.262;2022-09-09T15:28:26;19.80;99.90
3784;DHT22;1907;49.238;9.262;2022-09-09T15:30:53;19.90;99.90
3784;DHT22;1907;49.238;9.262;2022-09-09T15:33:20;19.90;99.90
3784;DHT22;1907;49.238;9.262;2022-09-09T15:35:45;20.00;99.90
3784;DHT22;1907;49.238;9.262;2022-09-09T15:38:11;20.10;99.90
3784;DHT22;1907;49.238;9.262;2022-09-09T15:40:39;20.10;99.90
3784;DHT22;1907;49.238;9.262;2022-09-09T15:43:06;20.10;99.90
3784;DHT22;1907;49.238;9.262;2022-09-09T15:45:33;20.20;99.90
3784;DHT22;1907;49.238;9.262;2022-09-09T15:47:59;20.30;99.90
3784;DHT22;1907;49.238;9.262;2022-09-09T15:50:25;20.30;99.90
3784;DHT22;1907;49.238;9.262;2022-09-09T15:52:51;20.30;99.90
3784;DHT22;1907;49.238;9.262;2022-09-09T15:55:18;20.30;99.90
3784;DHT22;1907;49.238;9.262;2022-09-09T15:57:45;20.20;99.90
3784;DHT22;1907;49.238;9.262;2022-09-09T16:00:12;20.10;99.90
3784;DHT22;1907;49.238;9.262;2022-09-09T16:02:38;20.00;99.90
3784;DHT22;1907;49.238;9.262;2022-09-09T16:05:04;19.90;99.90
3784;DHT22;1907;49.238;9.262;2022-09-09T16:07:30;19.80;99.90
3784;DHT22;1907;49.238;9.262;2022-09-09T16:09:55;19.70;99.90
3784;DHT22;1907;49.238;9.262;2022-09-09T16:12:21;19.60;99.90
3784;DHT22;1907;49.238;9.262;2022-09-09T16:14:47;19.60;99.90
3784;DHT22;1907;49.238;9.262;2022-09-09T16:17:12;19.60;99.90
3784;DHT22;1907;49.238;9.262;2022-09-09T16:19:39;19.50;99.90
3784;DHT22;1907;49.238;9.262;2022-09-09T16:22:05;19.50;99.90
3784;DHT22;1907;49.238;9.262;2022-09-09T16:24:32;19.40;99.90
3784;DHT22;1907;49.238;9.262;2022-09-09T16:26:57;19.30;99.90
3784;DHT22;1907;49.238;9.262;2022-09-09T16:29:23;19.10;99.90
3784;DHT22;1907;49.238;9.262;2022-09-09T16:31:53;19.10;99.90
3784;DHT22;1907;49.238;9.262;2022-09-09T16:34:19;18.90;99.90
3784;DHT22;1907;49.238;9.262;2022-09-09T16:36:46;18.80;99.90
3784;DHT22;1907;49.238;9.262;2022-09-09T16:39:14;18.70;99.90
3784;DHT22;1907;49.238;9.262;2022-09-09T16:41:42;18.60;99.90
3784;DHT22;1907;49.238;9.262;2022-09-09T16:44:10;18.50;99.90
3784;DHT22;1907;49.238;9.262;2022-09-09T16:46:38;18.50;99.90
3784;DHT22;1907;49.238;9.262;2022-09-09T16:49:06;18.50;99.90
3784;DHT22;1907;49.238;9.262;2022-09-09T16:51:35;18.50;99.90
3784;DHT22;1907;49.238;9.262;2022-09-09T16:54:03;18.50;99.90
3784;DHT22;1907;49.238;9.262;2022-09-09T16:56:31;18.50;99.90
3784;DHT22;1907;49.238;9.262;2022-09-09T16:59:04;18.50;99.90
3784;DHT22;1907;49.238;9.262;2022-09-09T17:01:32;18.50;99.90
3784;DHT22;1907;49.238;9.262;2022-09-09T17:04:00;18.50;99.90
3784;DHT22;1907;49.238;9.262;2022-09-09T17:06:27;18.40;99.90
3784;DHT22;1907;49.238;9.262;2022-09-09T17:08:57;18.40;99.90
3784;DHT22;1907;49.238;9.262;2022-09-09T17:11:23;18.30;99.90
3784;DHT22;1907;49.238;9.262;2022-09-09T17:13:50;18.20;99.90
3784;DHT22;1907;49.238;9.262;2022-09-09T17:16:17;18.10;99.90
3784;DHT22;1907;49.238;9.262;2022-09-09T17:18:43;18.00;99.90
3784;DHT22;1907;49.238;9.262;2022-09-09T17:21:13;18.00;99.90
3784;DHT22;1907;49.238;9.262;2022-09-09T17:23:39;17.90;99.90
3784;DHT22;1907;49.238;9.262;2022-09-09T17:26:06;17.80;99.90
3784;DHT22;1907;49.238;9.262;2022-09-09T17:28:36;17.70;99.90
3784;DHT22;1907;49.238;9.262;2022-09-09T17:31:05;17.60;99.90
3784;DHT22;1907;49.238;9.262;2022-09-09T17:33:32;17.50;99.90
3784;DHT22;1907;49.238;9.262;2022-09-09T17:35:59;17.40;99.90
3784;DHT22;1907;49.238;9.262;2022-09-09T17:38:26;17.20;99.90
3784;DHT22;1907;49.238;9.262;2022-09-09T17:41:09;17.10;99.90
3784;DHT22;1907;49.238;9.262;2022-09-09T17:43:35;17.00;99.90
3784;DHT22;1907;49.238;9.262;2022-09-09T17:48:32;16.80;99.90
3784;DHT22;1907;49.238;9.262;2022-09-09T17:50:58;16.80;99.90
3784;DHT22;1907;49.238;9.262;2022-09-09T17:53:24;16.70;99.90
3784;DHT22;1907;49.238;9.262;2022-09-09T17:55:51;16.60;99.90
3784;DHT22;1907;49.238;9.262;2022-09-09T17:58:17;16.60;99.90
3784;DHT22;1907;49.238;9.262;2022-09-09T18:00:42;16.50;99.90
3784;DHT22;1907;49.238;9.262;2022-09-09T18:03:08;16.50;99.90
3784;DHT22;1907;49.238;9.262;2022-09-09T18:05:34;16.40;99.90
3784;DHT22;1907;49.238;9.262;2022-09-09T18:08:00;16.40;99.90
3784;DHT22;1907;49.238;9.262;2022-09-09T18:10:25;16.40;99.90
3784;DHT22;1907;49.238;9.262;2022-09-09T18:12:51;16.40;99.90
3784;DHT22;1907;49.238;9.262;2022-09-09T18:15:17;16.50;99.90
3784;DHT22;1907;49.238;9.262;2022-09-09T18:17:42;16.50;99.90
3784;DHT22;1907;49.238;9.262;2022-09-09T18:20:08;16.50;99.90
3784;DHT22;1907;49.238;9.262;2022-09-09T18:22:35;16.50;99.90
3784;DHT22;1907;49.238;9.262;2022-09-09T18:25:01;16.50;99.90
3784;DHT22;1907;49.238;9.262;2022-09-09T18:27:26;16.50;99.90
3784;DHT22;1907;49.238;9.262;2022-09-09T18:29:53;16.50;99.90
3784;DHT22;1907;49.238;9.262;2022-09-09T18:32:19;16.50;99.90
3784;DHT22;1907;49.238;9.262;2022-09-09T18:34:44;16.40;99.90
3784;DHT22;1907;49.238;9.262;2022-09-09T18:37:10;16.30;99.90
3784;DHT22;1907;49.238;9.262;2022-09-09T18:39:36;16.30;99.90
3784;DHT22;1907;49.238;9.262;2022-09-09T18:42:02;16.20;99.90
3784;DHT22;1907;49.238;9.262;2022-09-09T18:44:31;16.10;99.90
3784;DHT22;1907;49.238;9.262;2022-09-09T18:46:58;16.00;99.90
3784;DHT22;1907;49.238;9.262;2022-09-09T18:49:24;16.00;99.90
3784;DHT22;1907;49.238;9.262;2022-09-09T18:51:50;15.90;99.90
3784;DHT22;1907;49.238;9.262;2022-09-09T18:54:19;15.80;99.90